NOO2572 SKBO-SKMR
Flight info
| Callsign | NOO2572 |
|---|---|
| Flight time | 0h 53m |
| Altitude | 36000 |
| Route | OSUSU4R GIKPU UQ120 PADUD DCT XOGEN |
| Aircraft | A20N/M-SDE2E3FGHIRWXY/LB1 |
Departure
| Time | 2026-05-06 13:38 |
|---|---|
| Airport | El Dorado International Airport (SKBO) |
Arrival
| Time | 2026-05-06 14:31 |
|---|---|
| Airport | Los Garzones Airport (SKMR) |
| Time | Latitude | Longitude | Altitude | Speed | Heading |
|---|---|---|---|---|---|
| 2026-05-06 13:07 | 4.70031 | -74.14378 | 8371 ft | 0 kts | 37° |
| 2026-05-06 13:24 | 4.70026 | -74.14382 | 8371 ft | 2 kts | 37° |
| 2026-05-06 13:25 | 4.70014 | -74.14391 | 8371 ft | 2 kts | 37° |
| 2026-05-06 13:25 | 4.70002 | -74.14401 | 8371 ft | 2 kts | 37° |
| 2026-05-06 13:25 | 4.69991 | -74.14409 | 8371 ft | 1 kts | 37° |
| 2026-05-06 13:25 | 4.69983 | -74.14415 | 8371 ft | 2 kts | 12° |
| 2026-05-06 13:26 | 4.69968 | -74.14413 | 8371 ft | 2 kts | 327° |
| 2026-05-06 13:26 | 4.69961 | -74.14408 | 8371 ft | 0 kts | 304° |
| 2026-05-06 13:26 | 4.69971 | -74.14419 | 8371 ft | 4 kts | 307° |
| 2026-05-06 13:26 | 4.69982 | -74.14432 | 8371 ft | 0 kts | 307° |
| 2026-05-06 13:30 | 4.69984 | -74.14435 | 8371 ft | 0 kts | 307° |
| 2026-05-06 13:30 | 4.69995 | -74.14450 | 8371 ft | 5 kts | 307° |
| 2026-05-06 13:30 | 4.70018 | -74.14481 | 8371 ft | 5 kts | 307° |
| 2026-05-06 13:31 | 4.70044 | -74.14515 | 8371 ft | 6 kts | 307° |
| 2026-05-06 13:31 | 4.70075 | -74.14551 | 8371 ft | 6 kts | 331° |
| 2026-05-06 13:31 | 4.70122 | -74.14558 | 8371 ft | 7 kts | 331° |
| 2026-05-06 13:31 | 4.70160 | -74.14593 | 8371 ft | 7 kts | 340° |
| 2026-05-06 13:32 | 4.70205 | -74.14569 | 8371 ft | 8 kts | 36° |
| 2026-05-06 13:32 | 4.70242 | -74.14542 | 8371 ft | 8 kts | 37° |
| 2026-05-06 13:32 | 4.70284 | -74.14510 | 8371 ft | 9 kts | 38° |
| 2026-05-06 13:32 | 4.70353 | -74.14458 | 8370 ft | 10 kts | 36° |
| 2026-05-06 13:33 | 4.70415 | -74.14411 | 8370 ft | 11 kts | 37° |
| 2026-05-06 13:33 | 4.70483 | -74.14408 | 8370 ft | 11 kts | 316° |
| 2026-05-06 13:33 | 4.70533 | -74.14472 | 8369 ft | 11 kts | 307° |
| 2026-05-06 13:33 | 4.70584 | -74.14539 | 8369 ft | 12 kts | 307° |
| 2026-05-06 13:34 | 4.70636 | -74.14609 | 8369 ft | 12 kts | 307° |
| 2026-05-06 13:34 | 4.70691 | -74.14681 | 8369 ft | 12 kts | 307° |
| 2026-05-06 13:34 | 4.70746 | -74.14753 | 8369 ft | 13 kts | 307° |
| 2026-05-06 13:34 | 4.70802 | -74.14828 | 8368 ft | 13 kts | 307° |
| 2026-05-06 13:35 | 4.70861 | -74.14906 | 8368 ft | 14 kts | 307° |
| 2026-05-06 13:35 | 4.70922 | -74.14986 | 8367 ft | 14 kts | 306° |
| 2026-05-06 13:35 | 4.70983 | -74.15067 | 8366 ft | 15 kts | 307° |
| 2026-05-06 13:35 | 4.71049 | -74.15153 | 8365 ft | 15 kts | 307° |
| 2026-05-06 13:36 | 4.71120 | -74.15214 | 8364 ft | 13 kts | 352° |
| 2026-05-06 13:36 | 4.71220 | -74.15224 | 8362 ft | 14 kts | 355° |
| 2026-05-06 13:36 | 4.71304 | -74.15218 | 8362 ft | 11 kts | 38° |
| 2026-05-06 13:36 | 4.71295 | -74.15149 | 8363 ft | 9 kts | 126° |
| 2026-05-06 13:37 | 4.71291 | -74.15144 | 8363 ft | 0 kts | 126° |
| 2026-05-06 13:37 | 4.71153 | -74.14959 | 8366 ft | 71 kts | 127° |
| 2026-05-06 13:38 | 4.70709 | -74.14372 | 8369 ft | 137 kts | 127° |
| 2026-05-06 13:38 | 4.70012 | -74.13458 | 8446 ft | 183 kts | 126° |
| 2026-05-06 13:38 | 4.69222 | -74.12444 | 9068 ft | 186 kts | 126° |
| 2026-05-06 13:38 | 4.68541 | -74.11371 | 9774 ft | 185 kts | 100° |
| 2026-05-06 13:39 | 4.68773 | -74.10152 | 10266 ft | 184 kts | 52° |
| 2026-05-06 13:39 | 4.69842 | -74.09470 | 10751 ft | 186 kts | 26° |
| 2026-05-06 13:39 | 4.71051 | -74.09002 | 11267 ft | 185 kts | 24° |
| 2026-05-06 13:39 | 4.72281 | -74.08543 | 11620 ft | 195 kts | 22° |
| 2026-05-06 13:40 | 4.73655 | -74.08099 | 11855 ft | 214 kts | 21° |
| 2026-05-06 13:40 | 4.75129 | -74.07628 | 12159 ft | 229 kts | 20° |
| 2026-05-06 13:40 | 4.76710 | -74.07117 | 12505 ft | 242 kts | 21° |
| 2026-05-06 13:40 | 4.78318 | -74.06588 | 13031 ft | 247 kts | 21° |
| 2026-05-06 13:41 | 4.79941 | -74.06049 | 13466 ft | 257 kts | 22° |
| 2026-05-06 13:41 | 4.81664 | -74.05466 | 13680 ft | 277 kts | 22° |
| 2026-05-06 13:41 | 4.83562 | -74.04823 | 14013 ft | 295 kts | 22° |
| 2026-05-06 13:41 | 4.85576 | -74.04142 | 14320 ft | 312 kts | 22° |
| 2026-05-06 13:42 | 4.87707 | -74.03419 | 14608 ft | 329 kts | 22° |
| 2026-05-06 13:42 | 4.89931 | -74.02665 | 14908 ft | 345 kts | 21° |
| 2026-05-06 13:42 | 4.92262 | -74.01877 | 15436 ft | 351 kts | 21° |
| 2026-05-06 13:42 | 4.94578 | -74.01095 | 16022 ft | 353 kts | 21° |
| 2026-05-06 13:43 | 4.96929 | -74.00300 | 16566 ft | 356 kts | 21° |
| 2026-05-06 13:43 | 4.99296 | -73.99498 | 16898 ft | 357 kts | 21° |
| 2026-05-06 13:43 | 5.01652 | -73.98727 | 17060 ft | 359 kts | 19° |
| 2026-05-06 13:43 | 5.04111 | -73.98064 | 17087 ft | 359 kts | 17° |
| 2026-05-06 13:44 | 5.06529 | -73.97460 | 17116 ft | 360 kts | 17° |
| 2026-05-06 13:44 | 5.08996 | -73.96851 | 17126 ft | 359 kts | 17° |
| 2026-05-06 13:44 | 5.11423 | -73.96250 | 17135 ft | 359 kts | 17° |
| 2026-05-06 13:44 | 5.13871 | -73.95644 | 17144 ft | 359 kts | 17° |
| 2026-05-06 13:45 | 5.16312 | -73.95038 | 17145 ft | 358 kts | 17° |
| 2026-05-06 13:45 | 5.21206 | -73.93818 | 17230 ft | 363 kts | 17° |
| 2026-05-06 13:45 | 5.23681 | -73.93201 | 17729 ft | 366 kts | 17° |
| 2026-05-06 13:46 | 5.25325 | -73.92793 | 18144 ft | 365 kts | 17° |
| 2026-05-06 13:46 | 5.28636 | -73.91966 | 18796 ft | 367 kts | 16° |
| 2026-05-06 13:46 | 5.31150 | -73.91337 | 19232 ft | 370 kts | 16° |
| 2026-05-06 13:46 | 5.33676 | -73.90707 | 19687 ft | 373 kts | 16° |
| 2026-05-06 13:47 | 5.36240 | -73.90070 | 20158 ft | 375 kts | 16° |
| 2026-05-06 13:47 | 5.38786 | -73.89436 | 20598 ft | 378 kts | 16° |
| 2026-05-06 13:47 | 5.41364 | -73.88793 | 21044 ft | 380 kts | 15° |
| 2026-05-06 13:47 | 5.43949 | -73.88150 | 21483 ft | 383 kts | 15° |
| 2026-05-06 13:48 | 5.46565 | -73.87499 | 21920 ft | 386 kts | 15° |
| 2026-05-06 13:48 | 5.49161 | -73.86852 | 22359 ft | 389 kts | 15° |
| 2026-05-06 13:48 | 5.51803 | -73.86194 | 22797 ft | 392 kts | 15° |
| 2026-05-06 13:48 | 5.54489 | -73.85576 | 23228 ft | 396 kts | 13° |
| 2026-05-06 13:49 | 5.57253 | -73.85000 | 23679 ft | 399 kts | 13° |
| 2026-05-06 13:49 | 5.59966 | -73.84443 | 24124 ft | 402 kts | 13° |
| 2026-05-06 13:49 | 5.62766 | -73.83868 | 24566 ft | 405 kts | 13° |
| 2026-05-06 13:49 | 5.65549 | -73.83295 | 24991 ft | 408 kts | 13° |
| 2026-05-06 13:50 | 5.68383 | -73.82714 | 25409 ft | 411 kts | 13° |
| 2026-05-06 13:50 | 5.71214 | -73.82130 | 25814 ft | 414 kts | 13° |
| 2026-05-06 13:50 | 5.74054 | -73.81547 | 26207 ft | 417 kts | 13° |
| 2026-05-06 13:50 | 5.76944 | -73.80952 | 26593 ft | 420 kts | 13° |
| 2026-05-06 13:51 | 5.79833 | -73.80357 | 26975 ft | 423 kts | 13° |
| 2026-05-06 13:51 | 5.82748 | -73.79756 | 27330 ft | 426 kts | 13° |
| 2026-05-06 13:51 | 5.85662 | -73.79156 | 27689 ft | 429 kts | 13° |
| 2026-05-06 13:51 | 5.88635 | -73.78544 | 28057 ft | 431 kts | 13° |
| 2026-05-06 13:52 | 5.91590 | -73.77934 | 28406 ft | 433 kts | 13° |
| 2026-05-06 13:52 | 5.94554 | -73.77325 | 28750 ft | 436 kts | 12° |
| 2026-05-06 13:52 | 5.97589 | -73.76701 | 29095 ft | 438 kts | 13° |
| 2026-05-06 13:52 | 6.00601 | -73.76080 | 29432 ft | 440 kts | 12° |
| 2026-05-06 13:53 | 6.03637 | -73.75455 | 29750 ft | 442 kts | 13° |
| 2026-05-06 13:53 | 6.06673 | -73.74828 | 30138 ft | 441 kts | 12° |
| 2026-05-06 13:53 | 6.09682 | -73.74206 | 30576 ft | 440 kts | 13° |
| 2026-05-06 13:53 | 6.12693 | -73.73587 | 31008 ft | 438 kts | 13° |
| 2026-05-06 13:54 | 6.15657 | -73.72975 | 31417 ft | 437 kts | 13° |
| 2026-05-06 13:54 | 6.15783 | -73.72949 | 31434 ft | 437 kts | 13° |
| 2026-05-06 13:54 | 6.18329 | -73.72424 | 31771 ft | 435 kts | 12° |
| 2026-05-06 13:54 | 6.21337 | -73.71803 | 32162 ft | 434 kts | 12° |
| 2026-05-06 13:55 | 6.24281 | -73.71197 | 32541 ft | 433 kts | 13° |
| 2026-05-06 13:55 | 6.27235 | -73.70589 | 32948 ft | 432 kts | 12° |
| 2026-05-06 13:55 | 6.30203 | -73.69978 | 33337 ft | 431 kts | 12° |
| 2026-05-06 13:55 | 6.33185 | -73.69363 | 33724 ft | 431 kts | 12° |
| 2026-05-06 13:56 | 6.36139 | -73.68755 | 34104 ft | 430 kts | 12° |
| 2026-05-06 13:56 | 6.39105 | -73.68145 | 34468 ft | 429 kts | 12° |
| 2026-05-06 13:56 | 6.42043 | -73.67541 | 34786 ft | 429 kts | 12° |
| 2026-05-06 13:56 | 6.44998 | -73.66931 | 35056 ft | 430 kts | 12° |
| 2026-05-06 13:57 | 6.47967 | -73.66319 | 35299 ft | 431 kts | 12° |
| 2026-05-06 13:57 | 6.50943 | -73.65704 | 35544 ft | 432 kts | 12° |
| 2026-05-06 13:57 | 6.53864 | -73.65100 | 35770 ft | 433 kts | 12° |
| 2026-05-06 13:57 | 6.56859 | -73.64482 | 35980 ft | 434 kts | 12° |
| 2026-05-06 13:58 | 6.59899 | -73.63854 | 36157 ft | 436 kts | 12° |
| 2026-05-06 13:58 | 6.62881 | -73.63239 | 36163 ft | 438 kts | 12° |
| 2026-05-06 13:58 | 6.68848 | -73.62009 | 36161 ft | 438 kts | 12° |
| 2026-05-06 13:59 | 6.73127 | -73.61127 | 36156 ft | 438 kts | 12° |
| 2026-05-06 13:59 | 6.78437 | -73.60033 | 36137 ft | 439 kts | 12° |
| 2026-05-06 14:00 | 6.84473 | -73.58788 | 36144 ft | 438 kts | 12° |
| 2026-05-06 14:00 | 6.90578 | -73.58064 | 36117 ft | 439 kts | 358° |
| 2026-05-06 14:01 | 6.96458 | -73.59048 | 36076 ft | 440 kts | 342° |
| 2026-05-06 14:01 | 7.02069 | -73.61797 | 36043 ft | 441 kts | 325° |
| 2026-05-06 14:02 | 7.06594 | -73.65965 | 36027 ft | 442 kts | 312° |
| 2026-05-06 14:02 | 7.10640 | -73.70644 | 35992 ft | 442 kts | 311° |
| 2026-05-06 14:03 | 7.14714 | -73.75372 | 35972 ft | 442 kts | 311° |
| 2026-05-06 14:03 | 7.18779 | -73.80064 | 35970 ft | 442 kts | 311° |
| 2026-05-06 14:04 | 7.22061 | -73.83845 | 35962 ft | 442 kts | 311° |
| 2026-05-06 14:04 | 7.26129 | -73.88528 | 35960 ft | 442 kts | 311° |
| 2026-05-06 14:05 | 7.30185 | -73.93195 | 35961 ft | 441 kts | 311° |
| 2026-05-06 14:05 | 7.34240 | -73.97865 | 35949 ft | 439 kts | 311° |
| 2026-05-06 14:06 | 7.38255 | -74.02490 | 35948 ft | 441 kts | 311° |
| 2026-05-06 14:06 | 7.42312 | -74.07163 | 35845 ft | 444 kts | 311° |
| 2026-05-06 14:07 | 7.44370 | -74.09534 | 35547 ft | 442 kts | 311° |
| 2026-05-06 14:07 | 7.46386 | -74.11858 | 35256 ft | 439 kts | 311° |
| 2026-05-06 14:07 | 7.48374 | -74.14152 | 34969 ft | 436 kts | 311° |
| 2026-05-06 14:07 | 7.50364 | -74.16447 | 34681 ft | 434 kts | 311° |
| 2026-05-06 14:08 | 7.52370 | -74.18761 | 34375 ft | 434 kts | 311° |
| 2026-05-06 14:08 | 7.54361 | -74.21058 | 33972 ft | 435 kts | 311° |
| 2026-05-06 14:08 | 7.56342 | -74.23345 | 33483 ft | 436 kts | 311° |
| 2026-05-06 14:08 | 7.57646 | -74.24850 | 33107 ft | 437 kts | 311° |
| 2026-05-06 14:09 | 7.60375 | -74.28000 | 32274 ft | 438 kts | 311° |
| 2026-05-06 14:09 | 7.62386 | -74.30321 | 31634 ft | 439 kts | 311° |
| 2026-05-06 14:09 | 7.64386 | -74.32629 | 30971 ft | 440 kts | 311° |
| 2026-05-06 14:09 | 7.66410 | -74.34967 | 30280 ft | 442 kts | 311° |
| 2026-05-06 14:10 | 7.68444 | -74.37318 | 29574 ft | 443 kts | 311° |
| 2026-05-06 14:10 | 7.70473 | -74.39665 | 28932 ft | 442 kts | 311° |
| 2026-05-06 14:10 | 7.72483 | -74.41991 | 28483 ft | 438 kts | 311° |
| 2026-05-06 14:10 | 7.74486 | -74.44310 | 28031 ft | 433 kts | 312° |
| 2026-05-06 14:11 | 7.76458 | -74.46590 | 27564 ft | 430 kts | 312° |
| 2026-05-06 14:11 | 7.78395 | -74.48831 | 27092 ft | 427 kts | 311° |
| 2026-05-06 14:11 | 7.80273 | -74.51148 | 26603 ft | 424 kts | 308° |
| 2026-05-06 14:11 | 7.82060 | -74.53508 | 26111 ft | 422 kts | 308° |
| 2026-05-06 14:12 | 7.83853 | -74.55904 | 25614 ft | 420 kts | 308° |
| 2026-05-06 14:12 | 7.85593 | -74.58234 | 25129 ft | 418 kts | 308° |
| 2026-05-06 14:12 | 7.87339 | -74.60571 | 24644 ft | 415 kts | 308° |
| 2026-05-06 14:12 | 7.89074 | -74.62895 | 24161 ft | 413 kts | 308° |
| 2026-05-06 14:13 | 7.90808 | -74.65219 | 23681 ft | 411 kts | 308° |
| 2026-05-06 14:13 | 7.92538 | -74.67536 | 23211 ft | 408 kts | 308° |
| 2026-05-06 14:13 | 7.94238 | -74.69813 | 22749 ft | 405 kts | 308° |
| 2026-05-06 14:13 | 7.95920 | -74.72068 | 22278 ft | 403 kts | 308° |
| 2026-05-06 14:14 | 7.97604 | -74.74325 | 21805 ft | 401 kts | 308° |
| 2026-05-06 14:14 | 7.99265 | -74.76552 | 21331 ft | 399 kts | 308° |
| 2026-05-06 14:14 | 8.00941 | -74.78799 | 20858 ft | 397 kts | 308° |
| 2026-05-06 14:14 | 8.02599 | -74.81023 | 20369 ft | 396 kts | 309° |
| 2026-05-06 14:15 | 8.04263 | -74.83255 | 19870 ft | 395 kts | 309° |
| 2026-05-06 14:15 | 8.05923 | -74.85481 | 19367 ft | 394 kts | 309° |
| 2026-05-06 14:15 | 8.07577 | -74.87697 | 18868 ft | 393 kts | 309° |
| 2026-05-06 14:15 | 8.09217 | -74.89897 | 18380 ft | 392 kts | 309° |
| 2026-05-06 14:16 | 8.10846 | -74.92082 | 17901 ft | 391 kts | 309° |
| 2026-05-06 14:16 | 8.12506 | -74.94311 | 17411 ft | 389 kts | 309° |
| 2026-05-06 14:16 | 8.14131 | -74.96493 | 16929 ft | 388 kts | 309° |
| 2026-05-06 14:16 | 8.15744 | -74.98656 | 16465 ft | 385 kts | 309° |
| 2026-05-06 14:17 | 8.17356 | -75.00816 | 15997 ft | 383 kts | 309° |
| 2026-05-06 14:17 | 8.18959 | -75.02967 | 15535 ft | 381 kts | 309° |
| 2026-05-06 14:17 | 8.20551 | -75.05104 | 15075 ft | 379 kts | 309° |
| 2026-05-06 14:17 | 8.22142 | -75.07240 | 14605 ft | 377 kts | 309° |
| 2026-05-06 14:18 | 8.23713 | -75.09349 | 14141 ft | 375 kts | 308° |
| 2026-05-06 14:18 | 8.25266 | -75.11435 | 13692 ft | 372 kts | 308° |
| 2026-05-06 14:18 | 8.26831 | -75.13538 | 13232 ft | 370 kts | 308° |
| 2026-05-06 14:18 | 8.28365 | -75.15602 | 12778 ft | 368 kts | 308° |
| 2026-05-06 14:19 | 8.29911 | -75.17681 | 12327 ft | 365 kts | 308° |
| 2026-05-06 14:19 | 8.31431 | -75.19723 | 11877 ft | 363 kts | 308° |
| 2026-05-06 14:19 | 8.32949 | -75.21765 | 11425 ft | 361 kts | 308° |
| 2026-05-06 14:19 | 8.34444 | -75.23776 | 10978 ft | 359 kts | 308° |
| 2026-05-06 14:20 | 8.35928 | -75.25772 | 10530 ft | 357 kts | 308° |
| 2026-05-06 14:20 | 8.37412 | -75.27769 | 10306 ft | 346 kts | 308° |
| 2026-05-06 14:20 | 8.38835 | -75.29688 | 10175 ft | 333 kts | 308° |
| 2026-05-06 14:20 | 8.40198 | -75.31524 | 10049 ft | 321 kts | 308° |
| 2026-05-06 14:21 | 8.41523 | -75.33310 | 9743 ft | 316 kts | 308° |
| 2026-05-06 14:21 | 8.42832 | -75.35073 | 9356 ft | 306 kts | 308° |
| 2026-05-06 14:21 | 8.44091 | -75.36770 | 8992 ft | 295 kts | 308° |
| 2026-05-06 14:21 | 8.45315 | -75.38421 | 8647 ft | 290 kts | 308° |
| 2026-05-06 14:22 | 8.46520 | -75.40044 | 8305 ft | 289 kts | 308° |
| 2026-05-06 14:22 | 8.47732 | -75.41678 | 7961 ft | 289 kts | 308° |
| 2026-05-06 14:22 | 8.48923 | -75.43282 | 7626 ft | 288 kts | 308° |
| 2026-05-06 14:22 | 8.50135 | -75.44916 | 7286 ft | 287 kts | 308° |
| 2026-05-06 14:23 | 8.51343 | -75.46543 | 6949 ft | 286 kts | 308° |
| 2026-05-06 14:23 | 8.52538 | -75.48154 | 6614 ft | 285 kts | 308° |
| 2026-05-06 14:23 | 8.53712 | -75.49735 | 6284 ft | 284 kts | 308° |
| 2026-05-06 14:23 | 8.54911 | -75.51347 | 5954 ft | 283 kts | 308° |
| 2026-05-06 14:24 | 8.56084 | -75.52916 | 5648 ft | 280 kts | 308° |
| 2026-05-06 14:24 | 8.57257 | -75.54485 | 5334 ft | 279 kts | 308° |
| 2026-05-06 14:24 | 8.58422 | -75.56046 | 5015 ft | 277 kts | 308° |
| 2026-05-06 14:24 | 8.59583 | -75.57603 | 4695 ft | 275 kts | 308° |
| 2026-05-06 14:25 | 8.60733 | -75.59146 | 4377 ft | 273 kts | 307° |
| 2026-05-06 14:25 | 8.61886 | -75.60697 | 4055 ft | 271 kts | 307° |
| 2026-05-06 14:25 | 8.63014 | -75.62213 | 3739 ft | 268 kts | 307° |
| 2026-05-06 14:25 | 8.64125 | -75.63706 | 3426 ft | 263 kts | 307° |
| 2026-05-06 14:26 | 8.65212 | -75.65168 | 3167 ft | 250 kts | 307° |
| 2026-05-06 14:26 | 8.66217 | -75.66519 | 3144 ft | 233 kts | 307° |
| 2026-05-06 14:26 | 8.67084 | -75.67838 | 3122 ft | 219 kts | 301° |
| 2026-05-06 14:26 | 8.67908 | -75.69077 | 3103 ft | 208 kts | 309° |
| 2026-05-06 14:27 | 8.68871 | -75.70172 | 3098 ft | 207 kts | 315° |
| 2026-05-06 14:27 | 8.69919 | -75.71184 | 3062 ft | 205 kts | 317° |
| 2026-05-06 14:27 | 8.70949 | -75.72124 | 2901 ft | 196 kts | 318° |
| 2026-05-06 14:27 | 8.71944 | -75.73027 | 2603 ft | 187 kts | 318° |
| 2026-05-06 14:28 | 8.72880 | -75.73882 | 2353 ft | 174 kts | 317° |
| 2026-05-06 14:28 | 8.73754 | -75.74683 | 2104 ft | 162 kts | 317° |
| 2026-05-06 14:28 | 8.74554 | -75.75418 | 1867 ft | 149 kts | 317° |
| 2026-05-06 14:28 | 8.75290 | -75.76093 | 1662 ft | 140 kts | 317° |
| 2026-05-06 14:29 | 8.76019 | -75.76762 | 1493 ft | 139 kts | 317° |
| 2026-05-06 14:29 | 8.76737 | -75.77421 | 1323 ft | 139 kts | 318° |
| 2026-05-06 14:29 | 8.77454 | -75.78077 | 1147 ft | 139 kts | 317° |
| 2026-05-06 14:29 | 8.78169 | -75.78732 | 967 ft | 138 kts | 317° |
| 2026-05-06 14:30 | 8.78883 | -75.79393 | 775 ft | 138 kts | 318° |
| 2026-05-06 14:30 | 8.79607 | -75.80037 | 573 ft | 138 kts | 317° |
| 2026-05-06 14:30 | 8.80307 | -75.80708 | 407 ft | 137 kts | 315° |
| 2026-05-06 14:30 | 8.81002 | -75.81360 | 249 ft | 137 kts | 318° |
| 2026-05-06 14:31 | 8.81727 | -75.82006 | 61 ft | 136 kts | 317° |
| 2026-05-06 14:31 | 8.82345 | -75.82570 | 54 ft | 97 kts | 318° |
| 2026-05-06 14:31 | 8.82721 | -75.82915 | 55 ft | 46 kts | 318° |
| 2026-05-06 14:31 | 8.82871 | -75.83052 | 55 ft | 23 kts | 318° |
| 2026-05-06 14:32 | 8.82964 | -75.83163 | 55 ft | 13 kts | 297° |
| 2026-05-06 14:32 | 8.82972 | -75.83151 | 55 ft | 6 kts | 134° |
| 2026-05-06 14:32 | 8.82938 | -75.83113 | 55 ft | 7 kts | 137° |
| 2026-05-06 14:32 | 8.82894 | -75.83073 | 55 ft | 9 kts | 137° |
| 2026-05-06 14:33 | 8.82842 | -75.83025 | 55 ft | 10 kts | 137° |
| 2026-05-06 14:33 | 8.82784 | -75.82973 | 55 ft | 11 kts | 137° |
| 2026-05-06 14:33 | 8.82722 | -75.82916 | 55 ft | 12 kts | 138° |
| 2026-05-06 14:33 | 8.82653 | -75.82854 | 55 ft | 13 kts | 137° |
| 2026-05-06 14:34 | 8.82583 | -75.82789 | 54 ft | 14 kts | 137° |
| 2026-05-06 14:34 | 8.82507 | -75.82719 | 54 ft | 14 kts | 137° |
| 2026-05-06 14:34 | 8.82457 | -75.82653 | 54 ft | 10 kts | 94° |
| 2026-05-06 14:34 | 8.82455 | -75.82577 | 54 ft | 10 kts | 92° |
| 2026-05-06 14:35 | 8.82431 | -75.82524 | 54 ft | 5 kts | 134° |
| 2026-05-06 14:35 | 8.82414 | -75.82501 | 54 ft | 3 kts | 86° |
| 2026-05-06 14:35 | 8.82424 | -75.82485 | 54 ft | 4 kts | 47° |
| 2026-05-06 14:35 | 8.82437 | -75.82469 | 54 ft | 0 kts | 49° |